createdAt,value
2023-12-05T00:01:49.990Z,100211.78
2023-12-05T00:04:03.138Z,100209.10
2023-12-05T00:06:16.040Z,100206.94
2023-12-05T00:08:28.931Z,100206.60
2023-12-05T00:10:42.274Z,100203.23
2023-12-05T00:12:55.258Z,100201.90
2023-12-05T00:15:08.518Z,100198.69
2023-12-05T00:17:21.368Z,100200.56
2023-12-05T00:19:34.664Z,100199.05
2023-12-05T00:21:47.605Z,100198.03
2023-12-05T00:24:00.481Z,100192.95
2023-12-05T00:26:13.337Z,100188.86
2023-12-05T00:28:26.155Z,100185.48
2023-12-05T00:30:39.061Z,100186.01
2023-12-05T00:32:51.994Z,100181.95
2023-12-05T00:35:05.381Z,100179.93
2023-12-05T00:37:18.437Z,100179.75
2023-12-05T00:39:31.352Z,100178.04
2023-12-05T00:41:44.261Z,100177.70
2023-12-05T00:43:57.203Z,100180.90
2023-12-05T00:46:11.504Z,100183.60
2023-12-05T00:48:24.436Z,100182.25
2023-12-05T00:50:40.932Z,100182.24
2023-12-05T00:52:58.839Z,100181.91
2023-12-05T00:55:11.689Z,100186.13
2023-12-05T00:57:24.920Z,100183.08
2023-12-05T00:59:37.883Z,100187.12
2023-12-05T01:01:50.762Z,100194.74
2023-12-05T01:04:03.827Z,100193.38
2023-12-05T01:06:16.815Z,100192.34
2023-12-05T01:08:29.785Z,100188.11
2023-12-05T01:10:42.885Z,100193.36
2023-12-05T01:12:55.832Z,100197.59
2023-12-05T01:15:09.514Z,100198.92
2023-12-05T01:17:22.510Z,100197.70
2023-12-05T01:19:36.516Z,100198.85
2023-12-05T01:21:49.354Z,100193.71
2023-12-05T01:24:02.207Z,100194.20
2023-12-05T01:26:15.288Z,100191.13
2023-12-05T01:28:28.155Z,100189.39
2023-12-05T01:30:42.786Z,100184.94
2023-12-05T01:32:55.758Z,100187.76
2023-12-05T01:35:08.859Z,100183.29
2023-12-05T01:37:21.709Z,100184.58
2023-12-05T01:39:34.517Z,100182.14
2023-12-05T01:41:47.424Z,100180.54
2023-12-05T01:44:00.371Z,100173.58
2023-12-05T01:46:14.093Z,100174.58
2023-12-05T01:48:28.376Z,100175.55
2023-12-05T01:50:41.433Z,100173.46
2023-12-05T01:52:57.525Z,100171.92
2023-12-05T01:55:11.206Z,100170.03
2023-12-05T01:57:25.573Z,100170.53
2023-12-05T01:59:38.638Z,100170.14
2023-12-05T02:01:52.160Z,100165.20
2023-12-05T02:04:05.769Z,100158.04
2023-12-05T02:06:19.996Z,100161.85
2023-12-05T02:08:33.548Z,100160.91
2023-12-05T02:10:46.395Z,100163.93
2023-12-05T02:12:59.209Z,100164.76
2023-12-05T02:15:12.557Z,100163.55
2023-12-05T02:17:30.660Z,100161.31
2023-12-05T02:19:43.764Z,100165.52
2023-12-05T02:22:02.557Z,100168.55
2023-12-05T02:24:40.664Z,100163.80
2023-12-05T02:27:22.295Z,100170.16
2023-12-05T02:29:45.443Z,100162.40
2023-12-05T02:31:58.402Z,100158.26
2023-12-05T02:34:11.563Z,100159.77
2023-12-05T02:36:31.474Z,100159.44
2023-12-05T02:38:57.350Z,100153.82
2023-12-05T02:41:26.067Z,100150.59
2023-12-05T02:43:47.634Z,100151.23
2023-12-05T02:46:09.101Z,100147.71
2023-12-05T02:48:23.754Z,100141.83
2023-12-05T02:50:36.640Z,100142.57
2023-12-05T02:52:49.443Z,100137.72
2023-12-05T02:55:02.235Z,100137.55
2023-12-05T02:57:15.514Z,100131.35
2023-12-05T02:59:28.379Z,100125.45
2023-12-05T03:01:41.372Z,100122.59
2023-12-05T03:03:54.353Z,100119.89
2023-12-05T03:06:07.548Z,100120.59
2023-12-05T03:08:20.453Z,100120.30
2023-12-05T03:10:33.448Z,100123.20
2023-12-05T03:12:46.280Z,100118.85
2023-12-05T03:14:59.865Z,100122.78
2023-12-05T03:17:12.852Z,100118.24
2023-12-05T03:19:25.849Z,100113.00
2023-12-05T03:21:38.909Z,100110.66
2023-12-05T03:23:52.006Z,100108.82
2023-12-05T03:26:05.201Z,100104.25
2023-12-05T03:28:18.277Z,100103.45
2023-12-05T03:30:31.122Z,100108.54
2023-12-05T03:32:44.048Z,100106.38
2023-12-05T03:34:56.854Z,100103.70
2023-12-05T03:37:09.811Z,100105.08
2023-12-05T03:39:22.792Z,100105.59
2023-12-05T03:41:36.175Z,100104.44
2023-12-05T03:43:49.252Z,100103.81
2023-12-05T03:46:02.153Z,100105.55
2023-12-05T03:48:15.409Z,100101.99
2023-12-05T03:50:28.340Z,100105.55
2023-12-05T03:52:41.201Z,100099.98
2023-12-05T03:54:54.127Z,100101.00
2023-12-05T03:57:07.005Z,100104.04
2023-12-05T03:59:19.829Z,100104.73
2023-12-05T04:01:32.714Z,100106.48
2023-12-05T04:03:45.648Z,100106.66
2023-12-05T04:05:58.678Z,100109.75
2023-12-05T04:08:11.788Z,100113.34
2023-12-05T04:10:25.802Z,100110.14
2023-12-05T04:12:41.031Z,100110.34
2023-12-05T04:14:53.920Z,100110.71
2023-12-05T04:17:06.910Z,100112.07
2023-12-05T04:19:19.775Z,100110.60
2023-12-05T04:21:32.713Z,100109.94
2023-12-05T04:23:46.280Z,100109.44
2023-12-05T04:25:59.112Z,100104.85
2023-12-05T04:28:11.929Z,100111.64
2023-12-05T04:30:24.801Z,100106.41
2023-12-05T04:32:37.666Z,100100.00
2023-12-05T04:34:50.505Z,100096.45
2023-12-05T04:37:03.489Z,100094.92
2023-12-05T04:39:16.339Z,100095.60
2023-12-05T04:41:35.071Z,100091.70
2023-12-05T04:43:48.011Z,100086.77
2023-12-05T04:46:00.934Z,100085.23
2023-12-05T04:48:14.085Z,100082.51
2023-12-05T04:50:26.941Z,100082.15
2023-12-05T04:52:39.939Z,100083.67
2023-12-05T04:54:52.838Z,100079.81
2023-12-05T04:57:05.934Z,100077.62
2023-12-05T04:59:18.852Z,100075.42
2023-12-05T05:01:31.742Z,100075.95
2023-12-05T05:03:44.743Z,100077.84
2023-12-05T05:05:57.747Z,100072.78
2023-12-05T05:08:11.823Z,100071.77
2023-12-05T05:10:24.687Z,100075.15
2023-12-05T05:12:37.566Z,100082.11
2023-12-05T05:14:50.381Z,100084.66
2023-12-05T05:17:05.273Z,100086.17
2023-12-05T05:19:18.213Z,100081.60
2023-12-05T05:21:31.141Z,100078.04
2023-12-05T05:23:44.017Z,100078.38
2023-12-05T05:25:56.848Z,100083.78
2023-12-05T05:28:12.379Z,100090.36
2023-12-05T05:30:25.234Z,100097.45
2023-12-05T05:32:38.260Z,100098.82
2023-12-05T05:34:51.123Z,100088.95
2023-12-05T05:37:04.291Z,100082.95
2023-12-05T05:39:17.149Z,100076.83
2023-12-05T05:41:30.025Z,100070.71
2023-12-05T05:43:42.910Z,100074.89
2023-12-05T05:45:55.866Z,100082.11
2023-12-05T05:48:08.826Z,100077.34
2023-12-05T05:50:21.729Z,100078.79
2023-12-05T05:52:34.623Z,100082.14
2023-12-05T05:54:50.445Z,100081.08
2023-12-05T05:57:03.565Z,100081.02
2023-12-05T05:59:17.411Z,100077.95
2023-12-05T06:01:30.246Z,100080.10
2023-12-05T06:03:43.261Z,100084.30
2023-12-05T06:05:58.419Z,100081.53
2023-12-05T06:08:11.319Z,100083.66
2023-12-05T06:10:24.299Z,100083.42
2023-12-05T06:12:37.147Z,100081.36
2023-12-05T06:14:50.551Z,100079.66
2023-12-05T06:17:03.759Z,100081.95
2023-12-05T06:19:16.706Z,100075.98
2023-12-05T06:21:29.655Z,100076.13
2023-12-05T06:23:42.760Z,100079.10
2023-12-05T06:25:59.425Z,100082.13
2023-12-05T06:28:12.300Z,100088.48
2023-12-05T06:30:27.487Z,100095.04
2023-12-05T06:32:41.190Z,100090.07
2023-12-05T06:34:54.039Z,100086.45
2023-12-05T06:37:07.050Z,100086.59
2023-12-05T06:39:20.191Z,100087.41
2023-12-05T06:41:33.034Z,100089.60
2023-12-05T06:43:45.864Z,100093.62
2023-12-05T06:45:58.674Z,100094.95
2023-12-05T06:48:11.795Z,100096.90
2023-12-05T06:50:24.903Z,100098.06
2023-12-05T06:52:41.723Z,100097.52
2023-12-05T06:54:54.808Z,100100.01
2023-12-05T06:57:07.670Z,100102.05
2023-12-05T06:59:20.720Z,100104.06
2023-12-05T07:01:35.137Z,100103.27
2023-12-05T07:03:53.688Z,100099.73
2023-12-05T07:06:10.155Z,100099.26
2023-12-05T07:08:23.076Z,100095.77
2023-12-05T07:10:35.958Z,100095.15
2023-12-05T07:12:48.849Z,100096.10
2023-12-05T07:15:01.926Z,100099.25
2023-12-05T07:17:14.756Z,100101.73
2023-12-05T07:19:27.758Z,100099.81
2023-12-05T07:21:40.854Z,100098.36
2023-12-05T07:24:00.437Z,100098.14
2023-12-05T07:26:14.159Z,100099.59
2023-12-05T07:28:31.087Z,100097.52
2023-12-05T07:30:44.105Z,100099.54
2023-12-05T07:32:56.958Z,100094.48
2023-12-05T07:35:11.912Z,100090.73
2023-12-05T07:37:25.327Z,100091.55
2023-12-05T07:39:38.339Z,100090.86
2023-12-05T07:41:51.196Z,100092.66
2023-12-05T07:44:04.151Z,100092.90
2023-12-05T07:46:17.477Z,100092.85
2023-12-05T07:48:30.467Z,100097.33
2023-12-05T07:50:45.039Z,100091.82
2023-12-05T07:52:57.894Z,100083.39
2023-12-05T07:55:11.211Z,100083.64
2023-12-05T07:57:24.034Z,100083.86
2023-12-05T07:59:36.939Z,100084.79
2023-12-05T08:01:52.348Z,100087.07
2023-12-05T08:04:05.458Z,100081.35
2023-12-05T08:06:18.442Z,100081.06
2023-12-05T08:08:31.519Z,100087.52
2023-12-05T08:10:44.371Z,100088.55
2023-12-05T08:12:57.358Z,100090.46
2023-12-05T08:15:10.441Z,100092.55
2023-12-05T08:17:23.306Z,100095.29
2023-12-05T08:19:36.158Z,100094.15
2023-12-05T08:21:49.067Z,100096.38
2023-12-05T08:24:01.900Z,100093.85
2023-12-05T08:26:14.814Z,100090.33
2023-12-05T08:28:27.702Z,100094.09
2023-12-05T08:30:42.516Z,100094.96
2023-12-05T08:32:58.498Z,100099.58
2023-12-05T08:35:11.618Z,100097.58
2023-12-05T08:37:24.521Z,100092.34
2023-12-05T08:39:37.370Z,100092.50
2023-12-05T08:41:50.365Z,100094.73
2023-12-05T08:44:03.379Z,100097.95
2023-12-05T08:46:16.533Z,100097.27
2023-12-05T08:48:29.514Z,100094.89
2023-12-05T08:50:43.128Z,100096.63
2023-12-05T08:52:55.974Z,100099.34
2023-12-05T08:55:08.975Z,100098.48
2023-12-05T08:57:21.883Z,100101.05
2023-12-05T08:59:34.835Z,100102.04
2023-12-05T09:01:49.019Z,100096.77
2023-12-05T09:04:02.129Z,100097.11
2023-12-05T09:06:15.107Z,100093.55
2023-12-05T09:08:28.109Z,100094.59
2023-12-05T09:10:40.955Z,100097.20
2023-12-05T09:12:53.801Z,100093.52
2023-12-05T09:15:07.893Z,100092.58
2023-12-05T09:17:22.015Z,100091.80
2023-12-05T09:19:34.990Z,100090.81
2023-12-05T09:21:47.924Z,100093.06
2023-12-05T09:24:02.205Z,100091.91
2023-12-05T09:26:16.074Z,100092.27
2023-12-05T09:28:29.309Z,100091.77
2023-12-05T09:30:42.263Z,100088.05
2023-12-05T09:32:56.900Z,100084.48
2023-12-05T09:35:10.136Z,100084.14
2023-12-05T09:37:22.952Z,100078.17
2023-12-05T09:39:35.816Z,100076.45
2023-12-05T09:41:52.665Z,100078.33
2023-12-05T09:44:06.118Z,100075.09
2023-12-05T09:46:22.703Z,100070.84
2023-12-05T09:48:46.229Z,100069.63
2023-12-05T09:52:23.485Z,100060.06
2023-12-05T09:54:37.772Z,100056.48
2023-12-05T09:56:52.745Z,100055.26
2023-12-05T09:59:05.730Z,100053.70
2023-12-05T10:01:20.944Z,100049.75
2023-12-05T10:03:37.583Z,100043.42
2023-12-05T10:05:52.726Z,100041.52
2023-12-05T10:08:06.635Z,100039.96
2023-12-05T10:10:21.093Z,100040.45
2023-12-05T10:12:34.175Z,100043.33
2023-12-05T10:14:47.237Z,100046.02
2023-12-05T10:17:02.367Z,100043.91
2023-12-05T10:19:15.634Z,100039.59
2023-12-05T10:21:28.848Z,100031.55
2023-12-05T10:23:42.007Z,100029.62
2023-12-05T10:25:54.806Z,100031.28
2023-12-05T10:28:08.139Z,100026.60
2023-12-05T10:30:35.627Z,100024.63
2023-12-05T10:32:48.585Z,100017.18
2023-12-05T10:35:03.635Z,100017.11
2023-12-05T10:37:27.680Z,100015.34
2023-12-05T10:39:41.091Z,100014.41
2023-12-05T10:41:53.973Z,100010.89
2023-12-05T10:44:06.778Z,100009.44
2023-12-05T10:46:19.912Z,99999.15
2023-12-05T10:48:32.933Z,99993.68
2023-12-05T10:50:48.425Z,99988.08
2023-12-05T10:53:01.289Z,99990.34
2023-12-05T10:55:25.024Z,99989.09
2023-12-05T10:57:38.533Z,99992.29
2023-12-05T10:59:52.096Z,99991.95
2023-12-05T11:02:16.748Z,99990.52
2023-12-05T11:04:29.797Z,99982.38
2023-12-05T11:06:42.855Z,99983.31
2023-12-05T11:08:55.876Z,99980.60
2023-12-05T11:11:09.148Z,99987.79
2023-12-05T11:13:22.669Z,99989.82
2023-12-05T11:15:39.289Z,99983.66
2023-12-05T11:18:01.087Z,99981.41
2023-12-05T11:20:16.864Z,99987.60
2023-12-05T11:22:41.093Z,99985.40
2023-12-05T11:25:38.574Z,99982.06
2023-12-05T11:28:14.304Z,99983.37
2023-12-05T11:30:53.300Z,99987.36
2023-12-05T11:33:19.248Z,99993.30
2023-12-05T11:35:59.607Z,99989.86
2023-12-05T11:38:15.292Z,99986.14
2023-12-05T11:40:28.325Z,99984.58
2023-12-05T11:43:06.393Z,99988.30
2023-12-05T11:45:24.069Z,99988.70
2023-12-05T11:47:37.651Z,99987.30
2023-12-05T11:49:54.394Z,99992.08
2023-12-05T11:52:11.953Z,99989.93
2023-12-05T11:54:26.156Z,99987.98
2023-12-05T11:56:39.040Z,99990.63
2023-12-05T11:58:51.858Z,99987.19
2023-12-05T12:01:08.562Z,99988.38
2023-12-05T12:03:21.568Z,99985.83
2023-12-05T12:05:34.567Z,99983.58
2023-12-05T12:07:59.614Z,99984.48
2023-12-05T12:10:16.113Z,99982.08
2023-12-05T12:12:28.973Z,99979.54
2023-12-05T12:14:43.164Z,99980.95
2023-12-05T12:16:56.070Z,99979.20
2023-12-05T12:19:17.377Z,99982.86
2023-12-05T12:21:31.407Z,99981.23
2023-12-05T12:23:44.751Z,99976.75
2023-12-05T12:26:01.617Z,99977.30
2023-12-05T12:28:34.322Z,99973.26
2023-12-05T12:30:48.019Z,99975.60
2023-12-05T12:33:07.241Z,99978.53
2023-12-05T12:35:23.470Z,99976.39
2023-12-05T12:37:45.548Z,99976.23
2023-12-05T12:40:02.695Z,99977.51
2023-12-05T12:42:17.805Z,99979.44
2023-12-05T12:44:31.544Z,99982.29
2023-12-05T12:46:44.965Z,99979.50
2023-12-05T12:49:00.134Z,99973.55
2023-12-05T12:51:14.270Z,99972.02
2023-12-05T12:53:27.081Z,99970.00
2023-12-05T12:55:40.837Z,99970.52
2023-12-05T12:57:54.622Z,99973.66
2023-12-05T13:00:30.751Z,99971.30
2023-12-05T13:02:43.806Z,99973.89
2023-12-05T13:04:56.946Z,99975.48
2023-12-05T13:07:19.866Z,99972.69
2023-12-05T13:09:33.262Z,99971.71
2023-12-05T13:11:46.603Z,99970.67
2023-12-05T13:13:59.432Z,99976.22
2023-12-05T13:16:12.674Z,99973.05
2023-12-05T13:18:41.611Z,99977.42
2023-12-05T13:20:55.969Z,99984.68
2023-12-05T13:23:09.011Z,99985.05
2023-12-05T13:25:29.216Z,99987.30
2023-12-05T13:27:44.925Z,99989.95
2023-12-05T13:29:58.714Z,99990.92
2023-12-05T13:32:12.147Z,99995.12
2023-12-05T13:34:25.182Z,99998.41
2023-12-05T13:36:38.937Z,100001.52
2023-12-05T13:38:53.858Z,99998.83
2023-12-05T13:41:06.892Z,99991.19
2023-12-05T13:43:19.696Z,99992.22
2023-12-05T13:45:33.620Z,99991.20
2023-12-05T13:47:46.511Z,99990.38
2023-12-05T13:49:59.449Z,99990.77
2023-12-05T13:52:12.758Z,99994.55
2023-12-05T13:54:25.967Z,99997.02
2023-12-05T13:56:38.809Z,100001.52
2023-12-05T13:58:51.833Z,100001.41
2023-12-05T14:01:04.997Z,99997.88
2023-12-05T14:03:17.936Z,99998.59
2023-12-05T14:05:32.679Z,99997.41
2023-12-05T14:07:45.782Z,99999.66
2023-12-05T14:09:58.693Z,100001.56
2023-12-05T14:12:13.066Z,100001.92
2023-12-05T14:14:27.055Z,100003.80
2023-12-05T14:16:39.868Z,100003.64
2023-12-05T14:18:52.793Z,100003.29
2023-12-05T14:21:06.028Z,100005.68
2023-12-05T14:23:19.914Z,100006.89
2023-12-05T14:25:32.779Z,100009.29
2023-12-05T14:27:45.615Z,100011.33
2023-12-05T14:29:58.430Z,100015.61
2023-12-05T14:32:11.648Z,100015.96
2023-12-05T14:34:24.570Z,100018.00
2023-12-05T14:36:37.478Z,100015.27
2023-12-05T14:39:00.040Z,100009.98
2023-12-05T14:41:17.750Z,100009.33
2023-12-05T14:43:31.828Z,100013.61
2023-12-05T14:45:44.622Z,100010.72
2023-12-05T14:47:57.669Z,100009.37
2023-12-05T14:50:10.596Z,100011.77
2023-12-05T14:52:25.522Z,100012.44
2023-12-05T14:54:38.519Z,100014.31
2023-12-05T14:56:51.975Z,100013.80
2023-12-05T14:59:05.400Z,100015.17
2023-12-05T15:01:18.324Z,100008.52
2023-12-05T15:03:31.417Z,100011.44
2023-12-05T15:05:44.396Z,100013.15
2023-12-05T15:07:57.590Z,100013.14
2023-12-05T15:10:10.770Z,100009.39
2023-12-05T15:12:23.744Z,100011.96
2023-12-05T15:14:36.919Z,100005.48
2023-12-05T15:16:49.707Z,99998.31
2023-12-05T15:19:02.569Z,100007.71
2023-12-05T15:21:16.523Z,100008.05
2023-12-05T15:23:41.573Z,100007.21
2023-12-05T15:25:54.845Z,100007.55
2023-12-05T15:28:12.372Z,100011.64
2023-12-05T15:30:26.050Z,100014.04
2023-12-05T15:32:40.243Z,100012.67
2023-12-05T15:34:53.643Z,100011.83
2023-12-05T15:37:08.162Z,100014.91
2023-12-05T15:39:20.947Z,100018.98
2023-12-05T15:41:34.349Z,100014.23
2023-12-05T15:43:47.319Z,100011.48
2023-12-05T15:46:00.239Z,100010.98
2023-12-05T15:48:42.640Z,100011.84
2023-12-05T15:50:46.636Z,100008.08
2023-12-05T15:53:03.389Z,100008.77
2023-12-05T15:55:18.492Z,100012.67
2023-12-05T15:57:31.373Z,100004.17
2023-12-05T15:59:44.897Z,100015.59
2023-12-05T16:01:57.810Z,100022.21
2023-12-05T16:04:10.954Z,100024.44
2023-12-05T16:06:24.067Z,100026.30
2023-12-05T16:08:36.851Z,100027.33
2023-12-05T16:10:51.825Z,100026.98
2023-12-05T16:13:05.132Z,100026.46
2023-12-05T16:15:20.866Z,100027.98
2023-12-05T16:17:33.940Z,100033.77
2023-12-05T16:19:47.135Z,100038.38
2023-12-05T16:22:00.423Z,100043.50
2023-12-05T16:24:13.503Z,100039.91
2023-12-05T16:26:27.328Z,100041.26
2023-12-05T16:28:40.362Z,100041.43
2023-12-05T16:30:54.336Z,100039.90
2023-12-05T16:33:07.672Z,100042.61
2023-12-05T16:35:22.913Z,100042.11
2023-12-05T16:37:36.062Z,100038.02
2023-12-05T16:39:49.007Z,100044.14
2023-12-05T16:42:01.876Z,100043.80
2023-12-05T16:44:14.877Z,100043.45
2023-12-05T16:46:28.596Z,100041.41
2023-12-05T16:48:41.636Z,100040.24
2023-12-05T16:50:55.469Z,100040.06
2023-12-05T16:53:08.295Z,100039.72
2023-12-05T16:55:21.180Z,100040.76
2023-12-05T16:57:34.231Z,100038.39
2023-12-05T16:59:47.143Z,100043.16
2023-12-05T17:02:00.340Z,100043.16
2023-12-05T17:04:14.914Z,100045.89
2023-12-05T17:06:27.907Z,100046.75
2023-12-05T17:08:41.096Z,100048.96
2023-12-05T17:10:54.047Z,100055.42
2023-12-05T17:13:06.996Z,100057.30
2023-12-05T17:15:19.956Z,100049.63
2023-12-05T17:17:34.692Z,100049.47
2023-12-05T17:19:47.837Z,100044.17
2023-12-05T17:22:01.163Z,100041.61
2023-12-05T17:24:14.426Z,100036.84
2023-12-05T17:26:27.466Z,100032.06
2023-12-05T17:28:40.453Z,100038.55
2023-12-05T17:30:53.418Z,100038.05
2023-12-05T17:33:06.519Z,100037.88
2023-12-05T17:35:19.473Z,100038.73
2023-12-05T17:37:33.002Z,100043.83
2023-12-05T17:39:45.944Z,100046.05
2023-12-05T17:41:58.847Z,100054.24
2023-12-05T17:44:11.751Z,100061.91
2023-12-05T17:46:24.708Z,100061.23
2023-12-05T17:48:37.762Z,100055.92
2023-12-05T17:50:50.838Z,100054.23
2023-12-05T17:53:03.795Z,100050.48
2023-12-05T17:55:16.785Z,100051.84
2023-12-05T17:57:30.033Z,100050.64
2023-12-05T17:59:43.657Z,100049.61
2023-12-05T18:01:57.597Z,100047.06
2023-12-05T18:04:10.584Z,100044.50
2023-12-05T18:06:23.548Z,100045.35
2023-12-05T18:08:36.537Z,100049.27
2023-12-05T18:10:49.497Z,100046.21
2023-12-05T18:13:02.598Z,100050.98
2023-12-05T18:15:16.524Z,100051.00
2023-12-05T18:17:30.576Z,100048.26
2023-12-05T18:19:48.358Z,100047.93
2023-12-05T18:22:02.168Z,100046.73
2023-12-05T18:24:15.392Z,100046.05
2023-12-05T18:26:29.243Z,100048.95
2023-12-05T18:28:42.394Z,100052.54
2023-12-05T18:30:55.441Z,100052.52
2023-12-05T18:33:08.971Z,100052.21
2023-12-05T18:35:22.233Z,100055.59
2023-12-05T18:37:37.383Z,100055.60
2023-12-05T18:39:50.600Z,100059.17
2023-12-05T18:42:05.777Z,100057.64
2023-12-05T18:44:18.774Z,100060.89
2023-12-05T18:46:32.088Z,100055.43
2023-12-05T18:48:45.017Z,100055.95
2023-12-05T18:50:57.930Z,100059.36
2023-12-05T18:53:11.305Z,100061.55
2023-12-05T18:55:25.091Z,100060.88
2023-12-05T18:57:38.387Z,100056.98
2023-12-05T18:59:51.311Z,100061.77
2023-12-05T19:02:04.404Z,100067.39
2023-12-05T19:04:17.465Z,100069.11
2023-12-05T19:06:30.795Z,100071.16
2023-12-05T19:08:43.769Z,100075.77
2023-12-05T19:10:57.320Z,100077.30
2023-12-05T19:13:10.413Z,100080.54
2023-12-05T19:15:24.044Z,100079.35
2023-12-05T19:17:37.296Z,100081.56
2023-12-05T19:19:50.532Z,100079.69
2023-12-05T19:22:04.807Z,100082.41
2023-12-05T19:24:17.891Z,100080.55
2023-12-05T19:26:30.874Z,100084.96
2023-12-05T19:28:51.012Z,100082.27
2023-12-05T19:31:07.721Z,100077.31
2023-12-05T19:33:21.512Z,100073.39
2023-12-05T19:35:34.573Z,100073.91
2023-12-05T19:37:47.659Z,100074.92
2023-12-05T19:40:01.367Z,100078.16
2023-12-05T19:42:18.734Z,100081.23
2023-12-05T19:44:31.703Z,100082.09
2023-12-05T19:46:44.505Z,100080.05
2023-12-05T19:48:59.302Z,100081.91
2023-12-05T19:51:12.400Z,100088.56
2023-12-05T19:53:26.799Z,100087.88
2023-12-05T19:55:44.094Z,100088.89
2023-12-05T19:57:56.936Z,100094.00
2023-12-05T20:00:11.915Z,100101.98
2023-12-05T20:02:24.732Z,100096.37
2023-12-05T20:04:37.698Z,100093.80
2023-12-05T20:06:51.461Z,100098.55
2023-12-05T20:09:04.511Z,100098.72
2023-12-05T20:11:19.087Z,100097.70
2023-12-05T20:13:34.071Z,100098.70
2023-12-05T20:15:48.143Z,100101.76
2023-12-05T20:18:01.070Z,100105.67
2023-12-05T20:20:14.082Z,100105.48
2023-12-05T20:22:29.453Z,100102.26
2023-12-05T20:24:42.343Z,100099.36
2023-12-05T20:26:55.299Z,100105.13
2023-12-05T20:29:08.247Z,100104.11
2023-12-05T20:31:21.172Z,100104.79
2023-12-05T20:33:34.148Z,100103.77
2023-12-05T20:35:47.013Z,100103.23
2023-12-05T20:37:59.890Z,100104.77
2023-12-05T20:40:13.302Z,100106.45
2023-12-05T20:42:28.237Z,100106.11
2023-12-05T20:44:41.524Z,100105.27
2023-12-05T20:46:54.422Z,100101.50
2023-12-05T20:49:07.692Z,100095.86
2023-12-05T20:51:21.112Z,100093.13
2023-12-05T20:53:34.044Z,100099.06
2023-12-05T20:55:48.255Z,100096.66
2023-12-05T20:58:01.148Z,100097.67
2023-12-05T21:00:14.362Z,100097.84
2023-12-05T21:02:28.936Z,100095.77
2023-12-05T21:04:41.806Z,100097.12
2023-12-05T21:06:54.998Z,100094.36
2023-12-05T21:09:13.279Z,100098.61
2023-12-05T21:11:26.763Z,100101.67
2023-12-05T21:13:39.679Z,100099.64
2023-12-05T21:15:52.584Z,100103.21
2023-12-05T21:18:05.493Z,100103.04
2023-12-05T21:20:19.344Z,100102.53
2023-12-05T21:22:33.529Z,100099.61
2023-12-05T21:24:49.040Z,100099.23
2023-12-05T21:27:02.022Z,100095.26
2023-12-05T21:29:15.070Z,100101.86
2023-12-05T21:31:30.198Z,100098.77
2023-12-05T21:33:43.599Z,100100.42
2023-12-05T21:35:56.480Z,100097.88
2023-12-05T21:38:09.353Z,100098.54
2023-12-05T21:40:22.394Z,100102.42
2023-12-05T21:42:35.218Z,100105.98
2023-12-05T21:44:48.087Z,100104.11
2023-12-05T21:47:00.941Z,100107.13
2023-12-05T21:49:13.867Z,100098.29
2023-12-05T21:51:28.016Z,100096.04
2023-12-05T21:53:41.172Z,100092.71
2023-12-05T21:55:55.046Z,100091.21
2023-12-05T21:58:07.872Z,100087.71
2023-12-05T22:00:23.036Z,100084.95
2023-12-05T22:02:36.121Z,100090.88
2023-12-05T22:04:49.582Z,100093.94
2023-12-05T22:07:02.650Z,100093.44
2023-12-05T22:09:15.640Z,100096.99
2023-12-05T22:11:28.472Z,100102.88
2023-12-05T22:13:44.513Z,100103.45
2023-12-05T22:15:59.008Z,100105.92
2023-12-05T22:18:13.593Z,100114.41
2023-12-05T22:20:26.450Z,100116.95
2023-12-05T22:22:39.316Z,100115.92
2023-12-05T22:24:52.197Z,100110.45
2023-12-05T22:27:05.372Z,100106.88
2023-12-05T22:29:18.340Z,100104.48
2023-12-05T22:31:31.424Z,100105.13
2023-12-05T22:33:44.250Z,100106.98
2023-12-05T22:35:58.464Z,100112.77
2023-12-05T22:38:11.594Z,100114.81
2023-12-05T22:40:25.279Z,100124.98
2023-12-05T22:42:38.838Z,100132.95
2023-12-05T22:44:51.728Z,100133.45
2023-12-05T22:47:04.673Z,100140.60
2023-12-05T22:49:17.636Z,100144.48
2023-12-05T22:51:30.757Z,100147.19
2023-12-05T22:53:43.747Z,100148.33
2023-12-05T22:57:19.006Z,100149.08
2023-12-05T22:59:32.269Z,100152.58
2023-12-05T23:01:45.747Z,100145.80
2023-12-05T23:03:59.467Z,100143.77
2023-12-05T23:06:12.487Z,100142.37
2023-12-05T23:08:25.471Z,100145.23
2023-12-05T23:10:38.566Z,100145.73
2023-12-05T23:12:51.961Z,100144.17
2023-12-05T23:15:05.680Z,100145.16
2023-12-05T23:17:19.165Z,100146.95
2023-12-05T23:19:32.195Z,100150.65
2023-12-05T23:21:45.329Z,100144.36
2023-12-05T23:23:59.777Z,100140.46
2023-12-05T23:26:13.396Z,100138.74
2023-12-05T23:28:26.493Z,100140.77
2023-12-05T23:30:39.422Z,100139.55
2023-12-05T23:32:52.272Z,100138.31
2023-12-05T23:35:05.855Z,100137.13
2023-12-05T23:37:18.951Z,100135.25
2023-12-05T23:39:32.110Z,100132.36
2023-12-05T23:41:45.013Z,100131.67
2023-12-05T23:43:57.889Z,100133.84
2023-12-05T23:46:11.934Z,100134.59
2023-12-05T23:48:24.947Z,100133.66
2023-12-05T23:50:37.789Z,100133.06
2023-12-05T23:52:50.603Z,100133.67
2023-12-05T23:55:03.602Z,100130.27
2023-12-05T23:57:16.538Z,100125.29
2023-12-05T23:59:29.721Z,100129.34
